sensor_id;sensor_type;location;lat;lon;timestamp;temperature;humidity
54158;DHT22;40065;49.894;10.358;2023-01-25T00:04:48;2.40;99.90
54158;DHT22;40065;49.894;10.358;2023-01-25T00:09:50;2.30;99.90
54158;DHT22;40065;49.894;10.358;2023-01-25T00:14:52;2.40;99.90
54158;DHT22;40065;49.894;10.358;2023-01-25T00:19:53;2.30;99.90
54158;DHT22;40065;49.894;10.358;2023-01-25T00:24:55;2.30;99.90
54158;DHT22;40065;49.894;10.358;2023-01-25T00:29:57;2.40;99.90
54158;DHT22;40065;49.894;10.358;2023-01-25T00:34:59;2.40;99.90
54158;DHT22;40065;49.894;10.358;2023-01-25T00:40:01;2.30;99.90
54158;DHT22;40065;49.894;10.358;2023-01-25T00:45:03;2.30;99.90
54158;DHT22;40065;49.894;10.358;2023-01-25T00:50:06;2.30;99.90
54158;DHT22;40065;49.894;10.358;2023-01-25T00:55:08;2.40;99.90
54158;DHT22;40065;49.894;10.358;2023-01-25T01:00:11;2.30;99.90
54158;DHT22;40065;49.894;10.358;2023-01-25T01:05:13;2.30;99.90
54158;DHT22;40065;49.894;10.358;2023-01-25T01:10:15;2.20;99.90
54158;DHT22;40065;49.894;10.358;2023-01-25T01:15:17;2.40;99.90
54158;DHT22;40065;49.894;10.358;2023-01-25T01:20:19;2.40;99.90
54158;DHT22;40065;49.894;10.358;2023-01-25T01:25:20;2.40;99.90
54158;DHT22;40065;49.894;10.358;2023-01-25T01:30:22;2.40;99.90
54158;DHT22;40065;49.894;10.358;2023-01-25T01:35:24;2.30;99.90
54158;DHT22;40065;49.894;10.358;2023-01-25T01:40:27;2.30;99.90
54158;DHT22;40065;49.894;10.358;2023-01-25T01:45:50;2.20;99.90
54158;DHT22;40065;49.894;10.358;2023-01-25T01:57:08;2.30;99.90
54158;DHT22;40065;49.894;10.358;2023-01-25T02:02:12;2.40;99.90
54158;DHT22;40065;49.894;10.358;2023-01-25T02:12:35;2.20;99.90
54158;DHT22;40065;49.894;10.358;2023-01-25T02:17:39;2.20;99.90
54158;DHT22;40065;49.894;10.358;2023-01-25T02:27:59;2.20;99.90
54158;DHT22;40065;49.894;10.358;2023-01-25T02:33:02;2.30;99.90
54158;DHT22;40065;49.894;10.358;2023-01-25T02:38:05;2.20;99.90
54158;DHT22;40065;49.894;10.358;2023-01-25T02:43:07;2.20;99.90
54158;DHT22;40065;49.894;10.358;2023-01-25T02:48:09;2.20;99.90
54158;DHT22;40065;49.894;10.358;2023-01-25T02:53:11;2.20;99.90
54158;DHT22;40065;49.894;10.358;2023-01-25T02:58:13;2.10;99.90
54158;DHT22;40065;49.894;10.358;2023-01-25T03:03:15;2.00;99.90
54158;DHT22;40065;49.894;10.358;2023-01-25T03:08:18;2.10;99.90
54158;DHT22;40065;49.894;10.358;2023-01-25T03:13:23;2.10;99.90
54158;DHT22;40065;49.894;10.358;2023-01-25T03:18:25;2.20;99.90
54158;DHT22;40065;49.894;10.358;2023-01-25T03:23:27;2.30;99.90
54158;DHT22;40065;49.894;10.358;2023-01-25T03:28:29;2.00;99.90
54158;DHT22;40065;49.894;10.358;2023-01-25T03:33:31;2.00;99.90
54158;DHT22;40065;49.894;10.358;2023-01-25T03:38:34;2.10;99.90
54158;DHT22;40065;49.894;10.358;2023-01-25T03:43:36;2.10;99.90
54158;DHT22;40065;49.894;10.358;2023-01-25T03:48:38;2.10;99.90
54158;DHT22;40065;49.894;10.358;2023-01-25T03:53:39;1.90;99.90
54158;DHT22;40065;49.894;10.358;2023-01-25T03:58:45;1.80;99.90
54158;DHT22;40065;49.894;10.358;2023-01-25T04:03:47;1.90;99.90
54158;DHT22;40065;49.894;10.358;2023-01-25T04:08:50;2.10;99.90
54158;DHT22;40065;49.894;10.358;2023-01-25T04:13:53;2.00;99.90
54158;DHT22;40065;49.894;10.358;2023-01-25T04:18:58;2.00;99.90
54158;DHT22;40065;49.894;10.358;2023-01-25T04:24:02;2.00;99.90
54158;DHT22;40065;49.894;10.358;2023-01-25T04:29:09;2.10;99.90
54158;DHT22;40065;49.894;10.358;2023-01-25T04:34:11;2.10;99.90
54158;DHT22;40065;49.894;10.358;2023-01-25T04:39:13;2.00;99.90
54158;DHT22;40065;49.894;10.358;2023-01-25T04:44:15;2.10;99.90
54158;DHT22;40065;49.894;10.358;2023-01-25T04:49:19;2.10;99.90
54158;DHT22;40065;49.894;10.358;2023-01-25T04:54:21;2.00;99.90
54158;DHT22;40065;49.894;10.358;2023-01-25T04:59:23;2.20;99.90
54158;DHT22;40065;49.894;10.358;2023-01-25T05:04:26;2.20;99.90
54158;DHT22;40065;49.894;10.358;2023-01-25T05:09:28;2.20;99.90
54158;DHT22;40065;49.894;10.358;2023-01-25T05:14:31;2.20;99.90
54158;DHT22;40065;49.894;10.358;2023-01-25T05:19:34;2.20;99.90
54158;DHT22;40065;49.894;10.358;2023-01-25T05:24:40;2.30;99.90
54158;DHT22;40065;49.894;10.358;2023-01-25T05:29:44;2.20;99.90
54158;DHT22;40065;49.894;10.358;2023-01-25T05:34:47;2.30;99.90
54158;DHT22;40065;49.894;10.358;2023-01-25T05:39:49;2.30;99.90
54158;DHT22;40065;49.894;10.358;2023-01-25T05:44:52;2.20;99.90
54158;DHT22;40065;49.894;10.358;2023-01-25T05:49:55;2.20;99.90
54158;DHT22;40065;49.894;10.358;2023-01-25T05:55:17;2.30;99.90
54158;DHT22;40065;49.894;10.358;2023-01-25T06:00:19;2.30;99.90
54158;DHT22;40065;49.894;10.358;2023-01-25T06:05:21;2.30;99.90
54158;DHT22;40065;49.894;10.358;2023-01-25T06:10:23;2.30;99.90
54158;DHT22;40065;49.894;10.358;2023-01-25T06:15:26;2.20;99.90
54158;DHT22;40065;49.894;10.358;2023-01-25T06:20:34;2.30;99.90
54158;DHT22;40065;49.894;10.358;2023-01-25T06:25:39;2.40;99.90
54158;DHT22;40065;49.894;10.358;2023-01-25T06:30:41;2.40;99.90
54158;DHT22;40065;49.894;10.358;2023-01-25T06:35:49;2.10;99.90
54158;DHT22;40065;49.894;10.358;2023-01-25T06:40:53;2.20;99.90
54158;DHT22;40065;49.894;10.358;2023-01-25T06:45:59;2.20;99.90
54158;DHT22;40065;49.894;10.358;2023-01-25T06:51:06;2.20;99.90
54158;DHT22;40065;49.894;10.358;2023-01-25T06:56:09;2.20;99.90
54158;DHT22;40065;49.894;10.358;2023-01-25T07:01:17;2.30;99.90
54158;DHT22;40065;49.894;10.358;2023-01-25T07:06:22;2.20;99.90
54158;DHT22;40065;49.894;10.358;2023-01-25T07:11:24;2.20;99.90
54158;DHT22;40065;49.894;10.358;2023-01-25T07:16:26;2.20;99.90
54158;DHT22;40065;49.894;10.358;2023-01-25T07:21:28;2.30;99.90
54158;DHT22;40065;49.894;10.358;2023-01-25T07:26:31;2.30;99.90
54158;DHT22;40065;49.894;10.358;2023-01-25T07:31:33;2.20;99.90
54158;DHT22;40065;49.894;10.358;2023-01-25T07:36:36;2.10;99.90
54158;DHT22;40065;49.894;10.358;2023-01-25T07:41:39;2.20;99.90
54158;DHT22;40065;49.894;10.358;2023-01-25T07:46:45;2.20;99.90
54158;DHT22;40065;49.894;10.358;2023-01-25T07:51:48;2.00;99.90
54158;DHT22;40065;49.894;10.358;2023-01-25T07:56:50;2.00;99.90
54158;DHT22;40065;49.894;10.358;2023-01-25T08:01:51;2.10;99.90
54158;DHT22;40065;49.894;10.358;2023-01-25T08:06:54;2.10;99.90
54158;DHT22;40065;49.894;10.358;2023-01-25T08:11:57;2.20;99.90
54158;DHT22;40065;49.894;10.358;2023-01-25T08:16:59;2.30;99.90
54158;DHT22;40065;49.894;10.358;2023-01-25T08:22:01;2.40;99.90
54158;DHT22;40065;49.894;10.358;2023-01-25T08:27:02;2.40;99.90
54158;DHT22;40065;49.894;10.358;2023-01-25T08:32:04;2.30;99.90
54158;DHT22;40065;49.894;10.358;2023-01-25T08:37:07;2.30;99.90
54158;DHT22;40065;49.894;10.358;2023-01-25T08:42:08;2.20;99.90
54158;DHT22;40065;49.894;10.358;2023-01-25T08:47:10;2.40;99.90
54158;DHT22;40065;49.894;10.358;2023-01-25T08:52:12;2.30;99.90
54158;DHT22;40065;49.894;10.358;2023-01-25T08:57:15;2.40;99.90
54158;DHT22;40065;49.894;10.358;2023-01-25T09:02:17;2.00;99.90
54158;DHT22;40065;49.894;10.358;2023-01-25T09:07:20;2.10;99.90
54158;DHT22;40065;49.894;10.358;2023-01-25T09:12:21;2.30;99.90
54158;DHT22;40065;49.894;10.358;2023-01-25T09:17:23;2.20;99.90
54158;DHT22;40065;49.894;10.358;2023-01-25T09:22:26;2.40;99.90
54158;DHT22;40065;49.894;10.358;2023-01-25T09:27:27;2.50;99.90
54158;DHT22;40065;49.894;10.358;2023-01-25T09:32:29;2.50;99.90
54158;DHT22;40065;49.894;10.358;2023-01-25T09:37:31;2.60;99.90
54158;DHT22;40065;49.894;10.358;2023-01-25T09:42:59;2.50;99.90
54158;DHT22;40065;49.894;10.358;2023-01-25T09:48:35;2.50;99.90
54158;DHT22;40065;49.894;10.358;2023-01-25T09:53:47;2.50;99.90
54158;DHT22;40065;49.894;10.358;2023-01-25T09:58:54;2.50;99.90
54158;DHT22;40065;49.894;10.358;2023-01-25T10:04:03;2.50;99.90
54158;DHT22;40065;49.894;10.358;2023-01-25T10:09:16;2.20;99.90
54158;DHT22;40065;49.894;10.358;2023-01-25T10:14:19;2.40;99.90
54158;DHT22;40065;49.894;10.358;2023-01-25T10:30:21;2.50;99.90
54158;DHT22;40065;49.894;10.358;2023-01-25T10:35:31;2.40;99.90
54158;DHT22;40065;49.894;10.358;2023-01-25T10:40:45;2.50;99.90
54158;DHT22;40065;49.894;10.358;2023-01-25T10:45:50;2.60;99.90
54158;DHT22;40065;49.894;10.358;2023-01-25T10:50:56;2.70;99.90
54158;DHT22;40065;49.894;10.358;2023-01-25T10:56:21;2.50;99.90
54158;DHT22;40065;49.894;10.358;2023-01-25T11:01:28;2.50;99.90
54158;DHT22;40065;49.894;10.358;2023-01-25T11:06:36;2.80;99.90
54158;DHT22;40065;49.894;10.358;2023-01-25T11:11:38;2.80;99.90
54158;DHT22;40065;49.894;10.358;2023-01-25T11:16:45;2.60;99.90
54158;DHT22;40065;49.894;10.358;2023-01-25T11:21:53;2.60;99.90
54158;DHT22;40065;49.894;10.358;2023-01-25T11:27:12;2.70;99.90
54158;DHT22;40065;49.894;10.358;2023-01-25T11:32:17;2.90;99.90
54158;DHT22;40065;49.894;10.358;2023-01-25T11:48:23;2.70;99.90
54158;DHT22;40065;49.894;10.358;2023-01-25T12:10:25;2.60;99.90
54158;DHT22;40065;49.894;10.358;2023-01-25T12:21:37;2.70;99.90
54158;DHT22;40065;49.894;10.358;2023-01-25T12:27:39;2.70;99.90
54158;DHT22;40065;49.894;10.358;2023-01-25T12:32:30;2.90;99.90
54158;DHT22;40065;49.894;10.358;2023-01-25T12:37:36;2.80;99.90
54158;DHT22;40065;49.894;10.358;2023-01-25T12:42:45;2.70;99.90
54158;DHT22;40065;49.894;10.358;2023-01-25T12:47:57;2.60;99.90
54158;DHT22;40065;49.894;10.358;2023-01-25T12:53:18;2.60;99.90
54158;DHT22;40065;49.894;10.358;2023-01-25T12:58:42;2.50;99.90
54158;DHT22;40065;49.894;10.358;2023-01-25T13:04:13;2.60;99.90
54158;DHT22;40065;49.894;10.358;2023-01-25T13:09:34;2.70;99.90
54158;DHT22;40065;49.894;10.358;2023-01-25T13:14:40;2.60;99.90
54158;DHT22;40065;49.894;10.358;2023-01-25T13:19:42;2.60;99.90
54158;DHT22;40065;49.894;10.358;2023-01-25T13:30:30;2.50;99.90
54158;DHT22;40065;49.894;10.358;2023-01-25T13:35:38;2.50;99.90
54158;DHT22;40065;49.894;10.358;2023-01-25T13:40:40;2.20;99.90
54158;DHT22;40065;49.894;10.358;2023-01-25T13:45:43;2.40;99.90
54158;DHT22;40065;49.894;10.358;2023-01-25T13:51:02;2.50;99.90
54158;DHT22;40065;49.894;10.358;2023-01-25T13:56:23;2.60;99.90
54158;DHT22;40065;49.894;10.358;2023-01-25T14:01:27;2.50;99.90
54158;DHT22;40065;49.894;10.358;2023-01-25T14:06:38;2.60;99.90
54158;DHT22;40065;49.894;10.358;2023-01-25T14:11:55;2.70;99.90
54158;DHT22;40065;49.894;10.358;2023-01-25T14:17:11;2.60;99.90
54158;DHT22;40065;49.894;10.358;2023-01-25T14:22:24;2.60;99.90
54158;DHT22;40065;49.894;10.358;2023-01-25T14:27:27;2.60;99.90
54158;DHT22;40065;49.894;10.358;2023-01-25T14:32:28;2.50;99.90
54158;DHT22;40065;49.894;10.358;2023-01-25T14:37:30;2.40;99.90
54158;DHT22;40065;49.894;10.358;2023-01-25T14:42:32;2.50;99.90
54158;DHT22;40065;49.894;10.358;2023-01-25T14:47:34;2.40;99.90
54158;DHT22;40065;49.894;10.358;2023-01-25T14:52:38;2.40;99.90
54158;DHT22;40065;49.894;10.358;2023-01-25T14:57:41;2.50;99.90
54158;DHT22;40065;49.894;10.358;2023-01-25T15:02:52;2.40;99.90
54158;DHT22;40065;49.894;10.358;2023-01-25T15:18:46;2.20;99.90
54158;DHT22;40065;49.894;10.358;2023-01-25T15:23:49;2.20;99.90
54158;DHT22;40065;49.894;10.358;2023-01-25T15:29:06;2.20;99.90
54158;DHT22;40065;49.894;10.358;2023-01-25T15:34:19;2.20;99.90
54158;DHT22;40065;49.894;10.358;2023-01-25T15:39:22;2.10;99.90
54158;DHT22;40065;49.894;10.358;2023-01-25T15:44:24;2.20;99.90
54158;DHT22;40065;49.894;10.358;2023-01-25T15:49:28;2.20;99.90
54158;DHT22;40065;49.894;10.358;2023-01-25T15:54:32;2.10;99.90
54158;DHT22;40065;49.894;10.358;2023-01-25T15:59:33;2.40;99.90
54158;DHT22;40065;49.894;10.358;2023-01-25T16:04:36;2.40;99.90
54158;DHT22;40065;49.894;10.358;2023-01-25T16:09:38;2.40;99.90
54158;DHT22;40065;49.894;10.358;2023-01-25T16:14:40;2.30;99.90
54158;DHT22;40065;49.894;10.358;2023-01-25T16:19:42;2.30;99.90
54158;DHT22;40065;49.894;10.358;2023-01-25T16:24:46;2.10;99.90
54158;DHT22;40065;49.894;10.358;2023-01-25T16:29:48;2.00;99.90
54158;DHT22;40065;49.894;10.358;2023-01-25T16:34:50;2.00;99.90
54158;DHT22;40065;49.894;10.358;2023-01-25T16:39:51;2.00;99.90
54158;DHT22;40065;49.894;10.358;2023-01-25T16:44:54;2.10;99.90
54158;DHT22;40065;49.894;10.358;2023-01-25T16:49:56;2.00;99.90
54158;DHT22;40065;49.894;10.358;2023-01-25T16:54:58;2.20;99.90
54158;DHT22;40065;49.894;10.358;2023-01-25T17:00:00;2.30;99.90
54158;DHT22;40065;49.894;10.358;2023-01-25T17:05:04;2.10;99.90
54158;DHT22;40065;49.894;10.358;2023-01-25T17:10:07;1.80;99.90
54158;DHT22;40065;49.894;10.358;2023-01-25T17:15:10;1.90;99.90
54158;DHT22;40065;49.894;10.358;2023-01-25T17:20:12;2.20;99.90
54158;DHT22;40065;49.894;10.358;2023-01-25T17:25:14;2.10;99.90
54158;DHT22;40065;49.894;10.358;2023-01-25T17:30:16;2.20;99.90
54158;DHT22;40065;49.894;10.358;2023-01-25T17:35:19;1.90;99.90
54158;DHT22;40065;49.894;10.358;2023-01-25T17:40:20;2.00;99.90
54158;DHT22;40065;49.894;10.358;2023-01-25T17:45:22;2.10;99.90
54158;DHT22;40065;49.894;10.358;2023-01-25T17:50:24;2.00;99.90
54158;DHT22;40065;49.894;10.358;2023-01-25T17:55:26;2.00;99.90
54158;DHT22;40065;49.894;10.358;2023-01-25T18:00:28;2.20;99.90
54158;DHT22;40065;49.894;10.358;2023-01-25T18:05:30;2.20;99.90
54158;DHT22;40065;49.894;10.358;2023-01-25T18:10:31;2.20;99.90
54158;DHT22;40065;49.894;10.358;2023-01-25T18:15:33;2.10;99.90
54158;DHT22;40065;49.894;10.358;2023-01-25T18:20:35;2.10;99.90
54158;DHT22;40065;49.894;10.358;2023-01-25T18:25:37;1.90;99.90
54158;DHT22;40065;49.894;10.358;2023-01-25T18:30:43;1.70;99.90
54158;DHT22;40065;49.894;10.358;2023-01-25T18:35:49;1.90;99.90
54158;DHT22;40065;49.894;10.358;2023-01-25T18:40:52;2.00;99.90
54158;DHT22;40065;49.894;10.358;2023-01-25T18:45:54;2.00;99.90
54158;DHT22;40065;49.894;10.358;2023-01-25T18:51:05;1.90;99.90
54158;DHT22;40065;49.894;10.358;2023-01-25T18:56:19;2.00;99.90
54158;DHT22;40065;49.894;10.358;2023-01-25T19:01:21;2.10;99.90
54158;DHT22;40065;49.894;10.358;2023-01-25T19:06:24;2.10;99.90
54158;DHT22;40065;49.894;10.358;2023-01-25T19:11:25;2.20;99.90
54158;DHT22;40065;49.894;10.358;2023-01-25T19:16:27;2.00;99.90
54158;DHT22;40065;49.894;10.358;2023-01-25T19:21:29;1.90;99.90
54158;DHT22;40065;49.894;10.358;2023-01-25T19:26:31;1.90;99.90
54158;DHT22;40065;49.894;10.358;2023-01-25T19:31:34;1.90;99.90
54158;DHT22;40065;49.894;10.358;2023-01-25T19:36:39;1.80;99.90
54158;DHT22;40065;49.894;10.358;2023-01-25T19:41:50;1.90;99.90
54158;DHT22;40065;49.894;10.358;2023-01-25T19:46:53;1.90;99.90
54158;DHT22;40065;49.894;10.358;2023-01-25T19:51:55;1.80;99.90
54158;DHT22;40065;49.894;10.358;2023-01-25T19:56:56;1.80;99.90
54158;DHT22;40065;49.894;10.358;2023-01-25T20:01:59;1.70;99.90
54158;DHT22;40065;49.894;10.358;2023-01-25T20:07:01;1.80;99.90
54158;DHT22;40065;49.894;10.358;2023-01-25T20:12:03;1.90;99.90
54158;DHT22;40065;49.894;10.358;2023-01-25T20:17:08;1.90;99.90
54158;DHT22;40065;49.894;10.358;2023-01-25T20:22:10;1.80;99.90
54158;DHT22;40065;49.894;10.358;2023-01-25T20:27:13;1.70;99.90
54158;DHT22;40065;49.894;10.358;2023-01-25T20:32:14;1.60;99.90
54158;DHT22;40065;49.894;10.358;2023-01-25T20:37:32;1.60;99.90
54158;DHT22;40065;49.894;10.358;2023-01-25T20:42:35;1.50;99.90
54158;DHT22;40065;49.894;10.358;2023-01-25T20:47:37;1.60;99.90
54158;DHT22;40065;49.894;10.358;2023-01-25T20:52:39;1.80;99.90
54158;DHT22;40065;49.894;10.358;2023-01-25T20:57:41;1.80;99.90
54158;DHT22;40065;49.894;10.358;2023-01-25T21:02:43;1.70;99.90
54158;DHT22;40065;49.894;10.358;2023-01-25T21:07:45;1.70;99.90
54158;DHT22;40065;49.894;10.358;2023-01-25T21:12:47;1.70;99.90
54158;DHT22;40065;49.894;10.358;2023-01-25T21:17:52;1.60;99.90
54158;DHT22;40065;49.894;10.358;2023-01-25T21:22:53;1.80;99.90
54158;DHT22;40065;49.894;10.358;2023-01-25T21:27:55;1.80;99.90
54158;DHT22;40065;49.894;10.358;2023-01-25T21:32:57;1.80;99.90
54158;DHT22;40065;49.894;10.358;2023-01-25T21:37:59;1.70;99.90
54158;DHT22;40065;49.894;10.358;2023-01-25T21:43:01;1.70;99.90
54158;DHT22;40065;49.894;10.358;2023-01-25T21:48:03;1.90;99.90
54158;DHT22;40065;49.894;10.358;2023-01-25T21:53:05;1.90;99.90
54158;DHT22;40065;49.894;10.358;2023-01-25T21:58:06;1.70;99.90
54158;DHT22;40065;49.894;10.358;2023-01-25T22:03:08;1.40;99.90
54158;DHT22;40065;49.894;10.358;2023-01-25T22:08:10;1.50;99.90
54158;DHT22;40065;49.894;10.358;2023-01-25T22:13:12;1.50;99.90
54158;DHT22;40065;49.894;10.358;2023-01-25T22:18:14;1.60;99.90
54158;DHT22;40065;49.894;10.358;2023-01-25T22:23:16;1.60;99.90
54158;DHT22;40065;49.894;10.358;2023-01-25T22:28:18;1.60;99.90
54158;DHT22;40065;49.894;10.358;2023-01-25T22:33:20;1.70;99.90
54158;DHT22;40065;49.894;10.358;2023-01-25T22:38:22;1.70;99.90
54158;DHT22;40065;49.894;10.358;2023-01-25T22:43:24;1.60;99.90
54158;DHT22;40065;49.894;10.358;2023-01-25T22:48:26;1.60;99.90
54158;DHT22;40065;49.894;10.358;2023-01-25T22:53:29;1.50;99.90
54158;DHT22;40065;49.894;10.358;2023-01-25T22:58:32;1.60;99.90
54158;DHT22;40065;49.894;10.358;2023-01-25T23:03:35;1.60;99.90
54158;DHT22;40065;49.894;10.358;2023-01-25T23:08:37;1.50;99.90
54158;DHT22;40065;49.894;10.358;2023-01-25T23:13:40;1.50;99.90
54158;DHT22;40065;49.894;10.358;2023-01-25T23:18:42;1.60;99.90
54158;DHT22;40065;49.894;10.358;2023-01-25T23:23:53;1.50;99.90
54158;DHT22;40065;49.894;10.358;2023-01-25T23:28:56;1.50;99.90
54158;DHT22;40065;49.894;10.358;2023-01-25T23:34:00;1.40;99.90
54158;DHT22;40065;49.894;10.358;2023-01-25T23:39:02;1.50;99.90
54158;DHT22;40065;49.894;10.358;2023-01-25T23:44:04;1.30;99.90
54158;DHT22;40065;49.894;10.358;2023-01-25T23:49:06;1.20;99.90
54158;DHT22;40065;49.894;10.358;2023-01-25T23:54:08;1.40;99.90
54158;DHT22;40065;49.894;10.358;2023-01-25T23:59:09;1.30;99.90
